Time;durP1;ratioP1;P1;durP2;ratioP2;P2;SDS_P1;SDS_P2;PMS_P1;PMS_P2;Temp;Humidity;BMP_temperature;BMP_pressure;BME280_temperature;BME280_humidity;BME280_pressure;Samples;Min_cycle;Max_cycle;Signal;HPM_P1;HPM_P2
2024/04/16 00:00:38;;;;;;;2.75;0.40;;;5.80;99.90;;;;;;5369416;26;20007;-77
2024/04/16 00:03:05;;;;;;;3.60;0.57;;;5.80;99.90;;;;;;5397416;26;19999;-77
2024/04/16 00:05:30;;;;;;;2.42;0.70;;;5.80;99.90;;;;;;5380858;26;20088;-76
2024/04/16 00:07:56;;;;;;;1.70;0.88;;;5.80;99.90;;;;;;5399281;26;20017;-76
2024/04/16 00:10:22;;;;;;;3.95;0.60;;;5.80;99.90;;;;;;5376743;26;20020;-77
2024/04/16 00:12:48;;;;;;;3.00;0.60;;;5.80;99.90;;;;;;5385641;26;20049;-77
2024/04/16 00:15:14;;;;;;;1.48;0.63;;;5.80;99.90;;;;;;5387754;26;20341;-77
2024/04/16 00:17:40;;;;;;;1.67;0.68;;;5.90;99.90;;;;;;5391805;26;20082;-77
2024/04/16 00:20:06;;;;;;;1.33;0.50;;;5.90;99.90;;;;;;5385852;26;20008;-77
2024/04/16 00:22:33;;;;;;;2.45;0.73;;;5.90;99.90;;;;;;5378716;26;20008;-77
2024/04/16 00:24:59;;;;;;;1.27;0.47;;;6.00;99.90;;;;;;5382013;26;20107;-77
2024/04/16 00:27:25;;;;;;;4.20;0.98;;;6.00;99.90;;;;;;5378813;26;22449;-77
2024/04/16 00:29:50;;;;;;;2.40;0.85;;;5.90;99.90;;;;;;5402330;26;20015;-77
2024/04/16 00:32:16;;;;;;;2.92;0.85;;;5.90;99.90;;;;;;5381934;26;20023;-77
2024/04/16 00:34:42;;;;;;;2.95;0.80;;;5.90;99.90;;;;;;5381061;26;20085;-77
2024/04/16 00:37:08;;;;;;;4.80;0.93;;;5.90;99.90;;;;;;5374891;26;20020;-77
2024/04/16 00:39:33;;;;;;;5.88;1.15;;;5.90;99.90;;;;;;5381043;26;20023;-77
2024/04/16 00:41:59;;;;;;;3.78;0.80;;;5.90;99.90;;;;;;5355892;26;20448;-77
2024/04/16 00:44:27;;;;;;;3.88;0.90;;;5.90;99.90;;;;;;5385667;26;20001;-77
2024/04/16 00:46:53;;;;;;;3.38;0.90;;;5.80;99.90;;;;;;5388831;26;20004;-76
2024/04/16 00:49:19;;;;;;;3.47;0.80;;;5.80;99.90;;;;;;5382556;26;20024;-76
2024/04/16 00:51:44;;;;;;;3.72;0.90;;;5.80;99.90;;;;;;5375941;26;20030;-76
2024/04/16 00:54:11;;;;;;;3.28;1.08;;;5.80;99.90;;;;;;5380298;26;20046;-76
2024/04/16 00:56:39;;;;;;;4.13;1.13;;;5.70;99.90;;;;;;5385637;26;20439;-76
2024/04/16 00:59:20;;;;;;;6.28;1.10;;;5.80;99.90;;;;;;5381336;26;20000;-76
2024/04/16 01:01:46;;;;;;;2.78;0.70;;;5.80;99.90;;;;;;5374817;26;20513;-76
2024/04/16 01:04:12;;;;;;;3.08;0.65;;;5.70;99.90;;;;;;5378288;26;20523;-76
2024/04/16 01:06:38;;;;;;;2.53;0.70;;;5.60;99.90;;;;;;5373498;26;20019;-76
2024/04/16 01:09:03;;;;;;;2.80;0.52;;;5.70;99.90;;;;;;5382550;26;20000;-76
2024/04/16 01:11:29;;;;;;;3.60;0.68;;;5.60;99.90;;;;;;5374062;26;20009;-76
2024/04/16 01:13:55;;;;;;;2.17;0.60;;;5.60;99.90;;;;;;5391560;26;19997;-76
2024/04/16 01:16:22;;;;;;;6.50;0.95;;;5.60;99.90;;;;;;5387343;26;20008;-76
2024/04/16 01:18:48;;;;;;;2.00;0.68;;;5.50;99.90;;;;;;5381795;26;20008;-76
2024/04/16 01:21:13;;;;;;;2.85;0.88;;;5.50;99.90;;;;;;5395741;26;20088;-76
2024/04/16 01:23:39;;;;;;;4.43;0.80;;;5.50;99.90;;;;;;5367526;26;20014;-76
2024/04/16 01:26:05;;;;;;;2.58;0.70;;;5.60;99.90;;;;;;5401797;26;20599;-76
2024/04/16 01:28:30;;;;;;;3.60;0.90;;;5.50;99.90;;;;;;5371824;26;20008;-76
2024/04/16 01:30:56;;;;;;;3.55;0.60;;;5.50;99.90;;;;;;5372446;26;20381;-76
2024/04/16 01:33:22;;;;;;;2.33;0.63;;;5.50;99.90;;;;;;5349434;26;20023;-77
2024/04/16 01:35:48;;;;;;;3.08;0.82;;;5.50;99.90;;;;;;5379329;26;20047;-77
2024/04/16 01:38:13;;;;;;;1.73;0.80;;;5.40;99.90;;;;;;5380358;26;20023;-77
2024/04/16 01:40:39;;;;;;;2.20;0.68;;;5.40;99.90;;;;;;5376649;26;20008;-77
2024/04/16 01:43:05;;;;;;;3.08;0.88;;;5.50;99.90;;;;;;5375101;26;20027;-77
2024/04/16 01:45:30;;;;;;;2.33;0.68;;;5.40;99.90;;;;;;5390010;26;20433;-77
2024/04/16 01:47:56;;;;;;;3.97;0.65;;;5.40;99.90;;;;;;5395448;26;20000;-77
2024/04/16 01:50:22;;;;;;;7.85;0.85;;;5.40;99.90;;;;;;5354254;26;20454;-77
2024/04/16 01:52:48;;;;;;;3.50;0.50;;;5.40;99.90;;;;;;5369412;26;20442;-77
2024/04/16 01:55:14;;;;;;;2.55;0.70;;;5.40;99.90;;;;;;5408753;26;20043;-77
2024/04/16 01:57:40;;;;;;;1.85;0.50;;;5.50;99.90;;;;;;5379841;26;20516;-77
2024/04/16 02:00:07;;;;;;;3.58;0.68;;;5.50;99.90;;;;;;5377724;26;20078;-77
2024/04/16 02:02:35;;;;;;;1.88;0.90;;;5.50;99.90;;;;;;5370361;26;20007;-77
2024/04/16 02:05:02;;;;;;;2.25;0.63;;;5.60;99.90;;;;;;5385676;26;20000;-77
2024/04/16 02:07:34;;;;;;;3.55;0.77;;;5.50;99.90;;;;;;5384917;26;20012;-77
2024/04/16 02:10:00;;;;;;;2.63;0.70;;;5.50;99.90;;;;;;5380748;26;20407;-77
2024/04/16 02:12:26;;;;;;;2.08;0.50;;;6.00;99.90;;;;;;5346076;26;20004;-77
2024/04/16 02:14:51;;;;;;;1.52;0.60;;;5.80;99.90;;;;;;5373821;26;20350;-77
2024/04/16 02:17:18;;;;;;;3.28;0.60;;;5.40;99.90;;;;;;5376068;26;20004;-77
2024/04/16 02:19:44;;;;;;;3.33;0.55;;;5.50;99.90;;;;;;5378016;26;20015;-77
2024/04/16 02:22:10;;;;;;;3.22;0.90;;;5.50;99.90;;;;;;5380107;26;20545;-77
2024/04/16 02:24:36;;;;;;;4.03;0.90;;;5.50;99.90;;;;;;5373693;26;20020;-77
2024/04/16 02:27:01;;;;;;;4.65;0.90;;;5.40;99.90;;;;;;5383451;26;20000;-77
2024/04/16 02:29:27;;;;;;;5.90;1.20;;;5.50;99.90;;;;;;5396003;26;20016;-77
2024/04/16 02:31:53;;;;;;;5.22;1.23;;;5.40;99.90;;;;;;5376929;26;20775;-77
2024/04/16 02:34:19;;;;;;;3.25;0.80;;;5.50;99.90;;;;;;5377655;26;20095;-77
2024/04/16 02:36:45;;;;;;;4.80;1.33;;;5.50;99.90;;;;;;5378434;26;20008;-77
2024/04/16 02:39:11;;;;;;;5.43;1.58;;;5.50;99.90;;;;;;5373157;26;20019;-77
2024/04/16 02:41:37;;;;;;;10.13;1.40;;;5.50;99.90;;;;;;5366225;26;20526;-77
2024/04/16 02:44:03;;;;;;;4.57;1.30;;;5.50;99.90;;;;;;5378581;26;20085;-77
2024/04/16 02:46:29;;;;;;;4.10;1.10;;;5.60;99.90;;;;;;5373578;26;20016;-78
2024/04/16 02:48:55;;;;;;;3.45;1.35;;;5.60;99.90;;;;;;5370522;26;20008;-77
2024/04/16 02:51:23;;;;;;;6.32;1.40;;;5.60;99.90;;;;;;5373404;26;20012;-77
2024/04/16 02:53:49;;;;;;;4.72;1.25;;;6.30;99.90;;;;;;5376444;26;20031;-77
2024/04/16 02:56:15;;;;;;;9.35;1.73;;;5.70;99.90;;;;;;5377778;26;20004;-77
2024/04/16 02:58:43;;;;;;;6.65;1.20;;;6.80;99.90;;;;;;5374659;26;20039;-77
2024/04/16 03:01:09;;;;;;;4.20;1.23;;;5.80;99.90;;;;;;5384215;26;20014;-76
2024/04/16 03:03:37;;;;;;;4.93;1.30;;;5.80;99.90;;;;;;5397370;26;20016;-77
2024/04/16 03:06:03;;;;;;;2.92;1.10;;;5.80;99.90;;;;;;5371181;26;20019;-77
2024/04/16 03:08:29;;;;;;;8.15;1.15;;;5.80;99.90;;;;;;5367698;26;20036;-77
2024/04/16 03:11:15;;;;;;;4.38;1.27;;;5.80;99.90;;;;;;5357483;26;20066;-77
2024/04/16 03:13:40;;;;;;;2.70;0.93;;;5.90;99.90;;;;;;5375945;26;20048;-77
2024/04/16 03:16:10;;;;;;;7.32;1.17;;;5.70;99.90;;;;;;5378501;26;20016;-77
2024/04/16 03:18:36;;;;;;;4.80;1.10;;;5.30;99.90;;;;;;5375613;26;20493;-76
2024/04/16 03:21:02;;;;;;;5.75;1.23;;;5.80;99.90;;;;;;5377226;26;20019;-76
2024/04/16 03:23:28;;;;;;;7.28;1.20;;;5.80;99.90;;;;;;5366052;26;20016;-76
2024/04/16 03:25:53;;;;;;;4.68;1.15;;;5.80;99.90;;;;;;5378344;26;20008;-77
2024/04/16 03:28:19;;;;;;;3.38;1.00;;;5.80;99.90;;;;;;5378191;26;20008;-77
2024/04/16 03:30:46;;;;;;;5.53;1.13;;;5.80;99.90;;;;;;5380686;26;20008;-77
2024/04/16 03:33:12;;;;;;;5.50;0.93;;;5.80;99.90;;;;;;5393390;26;20468;-77
2024/04/16 03:35:58;;;;;;;3.85;1.10;;;5.80;99.90;;;;;;5394003;26;20012;-77
2024/04/16 03:38:23;;;;;;;4.38;1.30;;;5.70;99.90;;;;;;5382513;26;20004;-77
2024/04/16 03:40:57;;;;;;;5.40;1.17;;;5.70;99.90;;;;;;5372050;26;20008;-77
2024/04/16 03:43:23;;;;;;;4.40;0.93;;;5.80;99.90;;;;;;5378059;26;20012;-77
2024/04/16 03:45:53;;;;;;;5.57;1.10;;;5.70;99.90;;;;;;5378297;26;20081;-77
2024/04/16 03:48:20;;;;;;;6.05;0.90;;;5.80;99.90;;;;;;5370307;26;20024;-76
2024/04/16 03:50:46;;;;;;;3.72;1.02;;;5.70;99.90;;;;;;5371980;26;20740;-76
2024/04/16 03:53:11;;;;;;;6.22;1.10;;;5.70;99.90;;;;;;5386903;26;20015;-77
2024/04/16 03:55:37;;;;;;;5.22;1.30;;;5.70;99.90;;;;;;5369929;26;20337;-77
2024/04/16 03:58:04;;;;;;;3.92;1.33;;;5.70;99.90;;;;;;5384306;26;20023;-76
2024/04/16 04:03:16;;;;;;;4.68;1.40;;;5.70;99.90;;;;;;5377050;26;20005;-77
2024/04/16 04:05:43;;;;;;;4.32;1.52;;;5.80;99.90;;;;;;5376854;26;20009;-77
2024/04/16 04:08:09;;;;;;;3.50;1.38;;;5.70;99.90;;;;;;5376967;26;19996;-77
2024/04/16 04:10:35;;;;;;;6.50;1.70;;;5.70;99.90;;;;;;5394757;26;20018;-77
2024/04/16 04:13:01;;;;;;;6.07;1.40;;;5.70;99.90;;;;;;5374984;26;20475;-77
2024/04/16 04:15:26;;;;;;;4.95;1.30;;;5.70;99.90;;;;;;5376685;26;20024;-77
2024/04/16 04:17:52;;;;;;;5.30;1.95;;;5.70;99.90;;;;;;5371310;26;20477;-77
2024/04/16 04:20:18;;;;;;;2.60;1.05;;;5.70;99.90;;;;;;5359032;26;20043;-76
2024/04/16 04:22:44;;;;;;;5.22;1.20;;;5.70;99.90;;;;;;5374487;26;20009;-77
2024/04/16 04:25:09;;;;;;;6.97;1.30;;;5.60;99.90;;;;;;5377652;26;20008;-77
2024/04/16 04:27:35;;;;;;;4.22;1.23;;;5.60;99.90;;;;;;5375175;26;20077;-77
2024/04/16 04:30:01;;;;;;;4.65;1.20;;;5.60;99.90;;;;;;5362123;26;20008;-77
2024/04/16 04:32:30;;;;;;;3.95;1.58;;;5.60;99.90;;;;;;5386262;26;20507;-77
2024/04/16 04:34:55;;;;;;;6.88;1.23;;;5.60;99.90;;;;;;5346335;26;20008;-77
2024/04/16 04:37:21;;;;;;;5.75;1.48;;;5.60;99.90;;;;;;5351023;26;20011;-76
2024/04/16 04:39:47;;;;;;;5.03;1.40;;;5.60;99.90;;;;;;5381573;26;20045;-76
2024/04/16 04:42:12;;;;;;;6.07;1.55;;;5.50;99.90;;;;;;5377243;26;20004;-76
2024/04/16 04:44:38;;;;;;;4.75;1.70;;;5.60;99.90;;;;;;5376510;26;20036;-76
2024/04/16 04:47:04;;;;;;;4.45;1.58;;;5.60;99.90;;;;;;5344749;26;20018;-76
2024/04/16 04:49:30;;;;;;;4.95;1.90;;;5.50;99.90;;;;;;5373410;26;20008;-76
2024/04/16 04:51:57;;;;;;;10.20;2.33;;;5.50;99.90;;;;;;5377070;26;20009;-77
2024/04/16 04:54:22;;;;;;;8.77;2.00;;;5.50;99.90;;;;;;5376403;26;20020;-77
2024/04/16 04:56:49;;;;;;;7.00;1.80;;;5.50;99.90;;;;;;5365266;26;20009;-77
2024/04/16 04:59:15;;;;;;;6.53;2.03;;;5.50;99.90;;;;;;5376004;26;20257;-76
2024/04/16 05:01:41;;;;;;;6.40;1.98;;;5.50;99.90;;;;;;5378784;26;20018;-76
2024/04/16 05:04:07;;;;;;;5.55;1.75;;;5.60;99.90;;;;;;5362498;26;20067;-76
2024/04/16 05:06:33;;;;;;;5.38;1.90;;;5.60;99.90;;;;;;5372247;26;20008;-74
2024/04/16 05:08:59;;;;;;;5.70;1.80;;;5.60;99.90;;;;;;5380150;26;20070;-76
2024/04/16 05:11:25;;;;;;;5.22;1.90;;;5.60;99.90;;;;;;5392828;26;20022;-77
2024/04/16 05:13:51;;;;;;;5.75;1.60;;;5.60;99.90;;;;;;5387979;26;20016;-77
2024/04/16 05:16:17;;;;;;;4.68;1.60;;;5.60;99.90;;;;;;5372049;26;20679;-77
2024/04/16 05:18:43;;;;;;;4.50;1.25;;;5.60;99.90;;;;;;5338222;26;20023;-77
2024/04/16 05:21:09;;;;;;;6.35;1.30;;;5.90;99.90;;;;;;5380080;26;20008;-77
2024/04/16 05:23:35;;;;;;;2.72;1.10;;;5.60;99.90;;;;;;5379865;26;20634;-77
2024/04/16 05:26:04;;;;;;;7.07;1.52;;;6.10;99.90;;;;;;5374012;26;20015;-77
2024/04/16 05:28:30;;;;;;;3.90;1.02;;;5.60;99.90;;;;;;5379203;26;20359;-77
2024/04/16 05:30:57;;;;;;;3.53;1.05;;;5.60;99.90;;;;;;5379809;26;20018;-77
2024/04/16 05:33:26;;;;;;;3.17;1.00;;;5.60;99.90;;;;;;5372326;26;20020;-78
2024/04/16 05:35:52;;;;;;;4.38;1.10;;;5.60;99.90;;;;;;5380606;26;20000;-76
2024/04/16 05:38:18;;;;;;;4.55;1.30;;;5.60;99.90;;;;;;5390346;26;20015;-77
2024/04/16 05:40:44;;;;;;;3.22;1.40;;;5.60;99.90;;;;;;5383873;26;20337;-77
2024/04/16 05:43:09;;;;;;;3.55;1.20;;;5.60;99.90;;;;;;5407654;26;20467;-77
2024/04/16 05:45:36;;;;;;;3.38;1.25;;;5.60;99.90;;;;;;5381139;26;20016;-77
2024/04/16 05:48:02;;;;;;;4.38;1.10;;;5.60;99.90;;;;;;5378580;26;20008;-76
2024/04/16 05:50:27;;;;;;;2.75;1.20;;;5.60;99.90;;;;;;5383935;26;20072;-77
2024/04/16 05:52:53;;;;;;;5.10;1.60;;;5.60;99.90;;;;;;5385120;26;20012;-76
2024/04/16 05:55:19;;;;;;;2.65;1.30;;;5.60;99.90;;;;;;5391800;26;20388;-77
2024/04/16 05:57:45;;;;;;;2.55;1.05;;;5.60;99.90;;;;;;5374344;26;20008;-77
2024/04/16 06:00:12;;;;;;;3.17;1.05;;;5.60;99.90;;;;;;5381939;26;20449;-78
2024/04/16 06:02:38;;;;;;;3.60;1.15;;;5.60;99.90;;;;;;5365616;26;20008;-77
2024/04/16 06:05:04;;;;;;;3.58;1.02;;;5.60;99.90;;;;;;5375102;26;20008;-76
2024/04/16 06:07:30;;;;;;;2.38;1.20;;;5.60;99.90;;;;;;5376834;26;20008;-78
2024/04/16 06:09:56;;;;;;;4.95;1.38;;;5.80;99.90;;;;;;5390926;26;20368;-77
2024/04/16 06:12:22;;;;;;;2.15;1.20;;;5.70;99.90;;;;;;5383848;26;20005;-77
2024/04/16 06:14:47;;;;;;;1.73;1.05;;;5.80;99.90;;;;;;5363106;26;20783;-77
2024/04/16 06:17:13;;;;;;;2.90;1.23;;;5.80;99.90;;;;;;5375528;26;20008;-77
2024/04/16 06:19:41;;;;;;;5.03;1.42;;;5.90;99.90;;;;;;5375108;26;20015;-77
2024/04/16 06:22:07;;;;;;;5.60;1.42;;;6.00;99.90;;;;;;5387797;26;20085;-77
2024/04/16 06:24:34;;;;;;;6.32;1.70;;;6.00;99.90;;;;;;5379013;26;20004;-77
2024/04/16 06:27:00;;;;;;;3.47;1.58;;;6.10;99.90;;;;;;5366248;26;20004;-77
2024/04/16 06:29:26;;;;;;;6.63;1.98;;;6.10;99.90;;;;;;5378647;26;20027;-77
2024/04/16 06:31:52;;;;;;;5.40;1.70;;;6.20;99.90;;;;;;5370229;26;20009;-77
2024/04/16 06:34:17;;;;;;;5.40;1.65;;;6.20;99.90;;;;;;5376632;26;20086;-77
2024/04/16 06:36:43;;;;;;;6.25;1.70;;;6.40;99.90;;;;;;5370160;26;20000;-77
2024/04/16 06:39:09;;;;;;;7.97;2.00;;;6.40;99.90;;;;;;5376150;26;20030;-80
2024/04/16 06:41:35;;;;;;;10.75;2.00;;;6.40;99.90;;;;;;5369027;26;20023;-77
2024/04/16 06:44:00;;;;;;;5.50;2.00;;;6.50;99.90;;;;;;5379167;26;20062;-78
2024/04/16 06:46:26;;;;;;;8.43;1.50;;;6.60;99.90;;;;;;5378069;26;20008;-78
2024/04/16 06:48:52;;;;;;;5.95;2.03;;;6.70;99.90;;;;;;5378307;26;20000;-78
2024/04/16 06:51:17;;;;;;;5.13;1.83;;;6.80;99.90;;;;;;5387268;26;20526;-78
2024/04/16 06:53:43;;;;;;;4.00;1.52;;;6.90;99.90;;;;;;5341258;26;20021;-78
2024/04/16 06:56:09;;;;;;;5.32;1.40;;;7.00;99.90;;;;;;5367439;26;20052;-78
2024/04/16 06:58:34;;;;;;;10.02;1.50;;;7.10;99.90;;;;;;5364364;26;20004;-78
2024/04/16 07:01:02;;;;;;;9.88;1.48;;;7.20;99.90;;;;;;5363498;26;20832;-77
2024/04/16 07:03:27;;;;;;;3.50;1.42;;;7.20;99.90;;;;;;5359720;26;20011;-77
2024/04/16 07:05:53;;;;;;;3.83;1.17;;;7.30;99.90;;;;;;5335714;26;20016;-77
2024/04/16 07:08:19;;;;;;;4.88;0.90;;;7.50;99.90;;;;;;5351975;26;20782;-78
2024/04/16 07:10:46;;;;;;;3.75;0.90;;;7.40;99.90;;;;;;5374591;26;20000;-78
2024/04/16 07:13:13;;;;;;;5.18;1.10;;;7.50;99.90;;;;;;5363260;26;20830;-77
2024/04/16 07:15:39;;;;;;;3.25;0.90;;;7.50;99.90;;;;;;5330546;26;20008;-78
2024/04/16 07:18:05;;;;;;;6.53;1.00;;;7.60;99.90;;;;;;5356505;26;20448;-78
2024/04/16 07:20:32;;;;;;;4.57;0.82;;;7.70;99.90;;;;;;5363384;26;20015;-81
2024/04/16 07:22:58;;;;;;;2.90;0.73;;;8.20;99.90;;;;;;5362514;26;20000;-78
2024/04/16 07:25:23;;;;;;;4.95;0.93;;;7.80;99.90;;;;;;5372777;26;20004;-78
2024/04/16 07:27:49;;;;;;;6.55;1.15;;;7.90;99.90;;;;;;5364741;26;20077;-78
2024/04/16 07:30:18;;;;;;;3.78;1.08;;;7.90;99.90;;;;;;5384492;26;20010;-78
2024/04/16 07:32:44;;;;;;;4.53;1.08;;;8.00;99.90;;;;;;5369456;26;20044;-78
2024/04/16 07:35:10;;;;;;;1.30;0.90;;;8.00;99.90;;;;;;5373844;26;20009;-78
2024/04/16 07:37:36;;;;;;;3.78;1.20;;;8.00;99.90;;;;;;5357198;26;19996;-78
2024/04/16 07:40:01;;;;;;;5.13;1.08;;;8.00;99.90;;;;;;5385295;26;20364;-78
2024/04/16 07:42:27;;;;;;;3.88;1.30;;;8.00;99.90;;;;;;5369431;26;20016;-78
2024/04/16 07:44:53;;;;;;;6.68;1.40;;;8.00;99.90;;;;;;5358525;26;20004;-78
2024/04/16 07:47:19;;;;;;;6.00;1.20;;;8.20;99.90;;;;;;5362869;26;20586;-78
2024/04/16 07:49:45;;;;;;;1.38;1.00;;;7.90;99.90;;;;;;5358005;26;20023;-78
2024/04/16 07:52:10;;;;;;;2.40;0.63;;;7.90;99.90;;;;;;5336752;26;19996;-78
2024/04/16 07:54:36;;;;;;;2.40;0.60;;;7.90;99.90;;;;;;5363744;26;20008;-78
2024/04/16 07:57:02;;;;;;;2.05;0.60;;;7.90;99.90;;;;;;5391967;26;20015;-78
2024/04/16 07:59:28;;;;;;;1.92;0.70;;;7.90;99.90;;;;;;5365585;26;20005;-78
2024/04/16 08:01:54;;;;;;;2.08;0.70;;;7.90;99.90;;;;;;5376360;26;20481;-78
2024/04/16 08:04:20;;;;;;;0.95;0.47;;;7.90;99.90;;;;;;5370272;26;20011;-78
2024/04/16 08:06:46;;;;;;;1.17;0.63;;;8.10;99.90;;;;;;5369826;26;20339;-78
2024/04/16 08:09:11;;;;;;;3.50;0.70;;;7.90;99.90;;;;;;5364789;26;20023;-78
2024/04/16 08:11:37;;;;;;;1.75;0.70;;;8.00;99.90;;;;;;5377524;26;20078;-78
2024/04/16 08:14:03;;;;;;;1.58;0.80;;;8.10;99.90;;;;;;5381117;26;20008;-78
2024/04/16 08:16:29;;;;;;;1.08;0.80;;;8.00;99.90;;;;;;5383585;26;20376;-78
2024/04/16 08:18:55;;;;;;;4.30;1.15;;;8.10;99.90;;;;;;5369066;26;20016;-78
2024/04/16 08:21:22;;;;;;;1.75;1.00;;;8.30;99.90;;;;;;5378740;26;20449;-78
2024/04/16 08:23:52;;;;;;;3.25;1.38;;;8.50;99.90;;;;;;5366782;26;20045;-78
2024/04/16 08:26:18;;;;;;;2.90;1.40;;;8.20;99.90;;;;;;5370910;26;20011;-78
2024/04/16 08:28:44;;;;;;;2.90;1.10;;;8.30;99.90;;;;;;5385231;26;20037;-78
2024/04/16 08:31:09;;;;;;;2.97;1.00;;;8.30;99.90;;;;;;5381643;26;20004;-78
2024/04/16 08:33:35;;;;;;;2.97;1.23;;;8.30;99.90;;;;;;5368930;26;20465;-78
2024/04/16 08:36:01;;;;;;;2.60;1.10;;;8.40;99.90;;;;;;5393162;26;20051;-78
2024/04/16 08:38:26;;;;;;;1.40;0.90;;;8.40;99.90;;;;;;5389938;26;20010;-79
2024/04/16 08:40:52;;;;;;;2.90;0.90;;;8.40;99.90;;;;;;5374747;26;20027;-78
2024/04/16 08:43:20;;;;;;;0.90;0.80;;;8.50;99.90;;;;;;5393592;26;20007;-78
2024/04/16 08:45:48;;;;;;;1.42;1.08;;;8.50;99.90;;;;;;5379633;26;20096;-78
2024/04/16 08:48:14;;;;;;;1.13;0.90;;;8.40;99.90;;;;;;5372419;26;20008;-78
2024/04/16 08:50:42;;;;;;;1.10;1.00;;;8.50;99.90;;;;;;5372445;26;20740;-78
2024/04/16 08:53:09;;;;;;;2.17;1.10;;;8.50;99.90;;;;;;5382411;26;20005;-79
2024/04/16 08:55:36;;;;;;;2.65;1.23;;;8.50;99.90;;;;;;5380186;26;20016;-79
2024/04/16 08:58:02;;;;;;;2.72;1.13;;;8.60;99.90;;;;;;5357931;26;20032;-78
2024/04/16 09:00:28;;;;;;;3.45;1.10;;;8.60;99.90;;;;;;5366225;26;20021;-78
2024/04/16 09:02:54;;;;;;;1.90;1.10;;;8.60;99.90;;;;;;5370500;26;20041;-78
2024/04/16 09:05:20;;;;;;;1.25;0.98;;;8.60;99.90;;;;;;5371667;26;20007;-78
2024/04/16 09:07:46;;;;;;;1.98;1.17;;;8.60;99.90;;;;;;5390390;26;20430;-78
2024/04/16 09:10:20;;;;;;;2.10;0.90;;;8.60;99.90;;;;;;5375224;26;20086;-79
2024/04/16 09:12:47;;;;;;;1.25;0.82;;;8.50;99.90;;;;;;5372921;26;20015;-78
2024/04/16 09:15:15;;;;;;;3.03;1.20;;;8.60;99.90;;;;;;5376814;26;19995;-78
2024/04/16 09:17:51;;;;;;;1.20;0.70;;;8.60;99.90;;;;;;5371134;26;20036;-78
2024/04/16 09:20:18;;;;;;;1.60;0.90;;;8.60;99.90;;;;;;5386037;26;20008;-78
2024/04/16 09:22:49;;;;;;;2.75;1.00;;;8.50;99.90;;;;;;5363891;26;20373;-78
2024/04/16 09:25:19;;;;;;;0.95;0.70;;;8.60;99.90;;;;;;5377027;26;20754;-78
2024/04/16 09:27:47;;;;;;;0.98;0.77;;;8.60;99.90;;;;;;5359774;26;20008;-78
2024/04/16 09:30:13;;;;;;;1.05;0.80;;;8.70;99.90;;;;;;5389160;26;20014;-78
2024/04/16 09:32:40;;;;;;;1.80;0.85;;;8.80;99.90;;;;;;5374626;26;20004;-78
2024/04/16 09:35:06;;;;;;;0.70;0.70;;;8.80;99.90;;;;;;5380141;26;20008;-78
2024/04/16 09:37:32;;;;;;;1.00;0.90;;;8.90;99.90;;;;;;5367502;26;20008;-78
2024/04/16 09:40:00;;;;;;;0.93;0.77;;;9.00;99.90;;;;;;5380228;26;20015;-78
2024/04/16 09:42:27;;;;;;;1.05;0.93;;;9.10;99.90;;;;;;5385014;26;20015;-78
2024/04/16 09:44:56;;;;;;;1.60;0.85;;;9.10;99.90;;;;;;5379310;26;20339;-78
2024/04/16 09:47:22;;;;;;;1.77;0.90;;;9.70;99.90;;;;;;5372491;26;20614;-78
2024/04/16 09:49:50;;;;;;;1.02;0.80;;;9.30;99.90;;;;;;5376263;26;20008;-78
2024/04/16 09:52:18;;;;;;;1.95;0.80;;;9.30;99.90;;;;;;5379777;26;20052;-78
2024/04/16 09:54:45;;;;;;;0.90;0.85;;;9.40;99.90;;;;;;5370763;26;20008;-78
2024/04/16 09:57:11;;;;;;;0.93;0.80;;;9.40;99.90;;;;;;5380846;26;20000;-78
2024/04/16 09:59:41;;;;;;;3.65;0.90;;;9.50;99.90;;;;;;5373088;26;20000;-78
2024/04/16 10:02:09;;;;;;;3.72;0.93;;;9.50;99.90;;;;;;5380667;26;20426;-77
2024/04/16 10:04:36;;;;;;;1.38;1.08;;;9.50;99.90;;;;;;5384589;26;20008;-77
2024/04/16 10:07:03;;;;;;;1.27;0.98;;;9.60;99.90;;;;;;5387225;26;20012;-77
2024/04/16 10:09:32;;;;;;;1.08;0.60;;;9.80;99.90;;;;;;5378937;26;20008;-77
2024/04/16 10:11:59;;;;;;;0.68;0.68;;;10.10;99.90;;;;;;5378979;26;20020;-78
2024/04/16 10:14:26;;;;;;;1.75;0.88;;;10.10;99.90;;;;;;5347333;26;20395;-77
2024/04/16 10:16:53;;;;;;;1.83;0.70;;;10.10;99.90;;;;;;5391315;26;20018;-77
2024/04/16 10:19:19;;;;;;;1.58;0.90;;;10.10;99.90;;;;;;5395472;26;20005;-78
2024/04/16 10:21:49;;;;;;;1.05;0.90;;;10.10;99.90;;;;;;5384983;26;20499;-78
2024/04/16 10:24:19;;;;;;;2.95;0.90;;;10.10;99.90;;;;;;5377278;26;20019;-78
2024/04/16 10:26:47;;;;;;;2.65;0.98;;;10.10;99.90;;;;;;5384095;26;20106;-78
2024/04/16 10:29:14;;;;;;;2.67;0.90;;;10.00;99.90;;;;;;5368887;26;20022;-77
2024/04/16 10:31:40;;;;;;;2.58;0.80;;;10.00;99.90;;;;;;5400849;26;20014;-78
2024/04/16 10:34:06;;;;;;;1.30;0.90;;;10.10;99.90;;;;;;5382921;26;20023;-78
2024/04/16 10:36:35;;;;;;;2.25;1.00;;;10.00;99.90;;;;;;5398053;26;20007;-78
2024/04/16 10:39:16;;;;;;;0.57;0.57;;;10.00;99.90;;;;;;5380293;26;20013;-78
2024/04/16 10:41:56;;;;;;;3.25;0.90;;;10.10;99.90;;;;;;5391139;26;20015;-77
2024/04/16 10:44:22;;;;;;;0.77;0.50;;;10.20;99.90;;;;;;5396760;26;20020;-77
2024/04/16 10:46:52;;;;;;;1.40;0.70;;;10.20;99.90;;;;;;5349303;26;20016;-77
2024/04/16 10:49:26;;;;;;;2.92;0.70;;;10.40;99.90;;;;;;5348356;26;20020;-77
2024/04/16 10:51:54;;;;;;;4.30;0.93;;;10.60;99.90;;;;;;5373660;26;20008;-78
2024/04/16 10:54:20;;;;;;;3.00;0.88;;;10.90;99.90;;;;;;5371321;26;20012;-78
2024/04/16 10:56:49;;;;;;;1.48;0.70;;;11.10;99.90;;;;;;5398251;26;20023;-78
2024/04/16 10:59:17;;;;;;;2.05;0.70;;;11.30;99.90;;;;;;5384729;26;20031;-78
2024/04/16 11:01:44;;;;;;;2.60;0.60;;;11.50;99.90;;;;;;5391292;26;20020;-78
2024/04/16 11:04:12;;;;;;;1.73;0.73;;;11.50;99.90;;;;;;5379512;26;20012;-78
2024/04/16 11:06:41;;;;;;;1.58;0.52;;;11.60;99.90;;;;;;5400218;26;20044;-77
2024/04/16 11:09:07;;;;;;;1.48;0.88;;;11.70;99.90;;;;;;5365604;26;20004;-78
2024/04/16 11:11:34;;;;;;;0.82;0.80;;;11.90;99.90;;;;;;5389742;26;20438;-78
2024/04/16 11:14:02;;;;;;;2.78;0.82;;;12.00;99.90;;;;;;5396220;26;20019;-78
2024/04/16 11:16:28;;;;;;;1.20;0.77;;;12.20;99.90;;;;;;5379170;26;20019;-77
2024/04/16 11:18:55;;;;;;;1.67;0.80;;;12.20;99.90;;;;;;5381567;26;20008;-78
2024/04/16 11:21:21;;;;;;;2.67;0.80;;;12.30;99.90;;;;;;5381038;26;20473;-78
2024/04/16 11:23:50;;;;;;;3.08;0.60;;;12.20;99.90;;;;;;5389411;26;20015;-78
2024/04/16 11:26:16;;;;;;;1.40;0.52;;;12.20;99.90;;;;;;5396963;26;20088;-78
2024/04/16 11:28:42;;;;;;;4.20;0.68;;;12.10;99.90;;;;;;5391594;26;20493;-78
2024/04/16 11:31:08;;;;;;;1.05;0.77;;;12.20;99.90;;;;;;5382552;26;20008;-78
2024/04/16 11:33:35;;;;;;;4.93;1.10;;;12.40;99.90;;;;;;5374215;26;20008;-78
2024/04/16 11:36:04;;;;;;;0.90;0.52;;;12.50;99.90;;;;;;5392230;26;20012;-78
2024/04/16 11:38:30;;;;;;;4.40;0.70;;;12.60;99.90;;;;;;5388023;26;20019;-78
2024/04/16 11:40:56;;;;;;;0.70;0.50;;;12.60;99.90;;;;;;5380505;26;20349;-78
2024/04/16 11:43:22;;;;;;;1.77;0.60;;;12.60;99.90;;;;;;5394782;26;20017;-78
2024/04/16 11:45:48;;;;;;;0.75;0.52;;;12.50;99.90;;;;;;5386999;26;20361;-78
2024/04/16 11:48:14;;;;;;;1.70;0.60;;;12.40;99.90;;;;;;5380792;26;20008;-78
2024/04/16 11:50:39;;;;;;;0.40;0.30;;;12.40;99.90;;;;;;5382993;26;20347;-77
2024/04/16 11:53:05;;;;;;;0.82;0.60;;;12.30;99.90;;;;;;5382672;26;20487;-77
2024/04/16 11:55:31;;;;;;;3.33;0.63;;;12.40;99.90;;;;;;5380032;26;20008;-77
2024/04/16 11:57:56;;;;;;;1.13;0.30;;;12.40;99.90;;;;;;5393785;26;20009;-78
2024/04/16 12:00:22;;;;;;;2.08;0.50;;;12.50;99.90;;;;;;5393968;26;20008;-78
2024/04/16 12:02:48;;;;;;;0.70;0.45;;;12.30;99.90;;;;;;5391617;26;20000;-77
2024/04/16 12:05:13;;;;;;;1.42;0.40;;;12.20;99.90;;;;;;5390061;26;20009;-78
2024/04/16 12:07:40;;;;;;;2.75;0.60;;;12.10;99.90;;;;;;5374932;26;20445;-77
2024/04/16 12:10:06;;;;;;;1.35;0.60;;;11.90;99.90;;;;;;5393751;26;20008;-78
2024/04/16 12:12:32;;;;;;;0.88;0.50;;;11.80;99.90;;;;;;5359284;26;20022;-78
2024/04/16 12:14:57;;;;;;;0.75;0.47;;;11.80;99.90;;;;;;5383840;26;20008;-78
2024/04/16 12:17:23;;;;;;;2.72;0.52;;;11.70;99.90;;;;;;5380475;26;19999;-79
2024/04/16 12:19:49;;;;;;;3.30;0.60;;;11.60;99.90;;;;;;5376877;26;20004;-81
2024/04/16 12:22:15;;;;;;;1.83;0.50;;;11.50;99.90;;;;;;5351186;26;20008;-82
2024/04/16 12:24:40;;;;;;;0.90;0.50;;;11.50;99.90;;;;;;5396487;26;20020;-82
2024/04/16 12:27:06;;;;;;;8.00;3.38;;;11.40;99.90;;;;;;5380322;26;20611;-78
2024/04/16 12:29:32;;;;;;;16.10;8.43;;;11.20;99.90;;;;;;5372998;26;20008;-79
2024/04/16 12:31:57;;;;;;;11.20;7.28;;;11.20;99.90;;;;;;5390108;26;20426;-79
2024/04/16 12:34:23;;;;;;;20.77;14.15;;;11.20;99.90;;;;;;5388946;26;20019;-79
2024/04/16 12:36:49;;;;;;;13.90;8.38;;;11.00;99.90;;;;;;5388558;26;20000;-80
2024/04/16 12:39:14;;;;;;;9.38;5.72;;;11.10;99.90;;;;;;5390546;26;20020;-78
2024/04/16 12:41:41;;;;;;;4.13;2.30;;;11.10;99.90;;;;;;5397201;26;19999;-79
2024/04/16 12:44:07;;;;;;;6.90;1.80;;;11.30;99.90;;;;;;5387443;26;19996;-80
2024/04/16 12:46:32;;;;;;;3.97;1.60;;;11.30;99.90;;;;;;5386723;26;20011;-78
2024/04/16 12:48:58;;;;;;;4.00;1.45;;;11.10;99.90;;;;;;5383643;26;20436;-79
2024/04/16 12:51:24;;;;;;;1.27;1.00;;;11.50;99.90;;;;;;5390203;26;20000;-79
2024/04/16 12:53:49;;;;;;;1.70;0.90;;;11.60;99.90;;;;;;5405401;26;20022;-80